Time;durP1;ratioP1;P1;durP2;ratioP2;P2;SDS_P1;SDS_P2;PMS_P1;PMS_P2;Temp;Humidity;BMP_temperature;BMP_pressure;BME280_temperature;BME280_humidity;BME280_pressure;Samples;Min_cycle;Max_cycle;Signal;HPM_P1;HPM_P2
2023/05/17 00:00:46;;;;;;;10.97;3.57;;;;;7.50;101996.00;;;;9790122;29;21194;-74
2023/05/17 00:05:47;;;;;;;13.27;3.87;;;;;7.40;101993.00;;;;9787439;29;20231;-80
2023/05/17 00:10:49;;;;;;;15.93;5.23;;;;;7.40;101997.00;;;;9815355;29;20223;-75
2023/05/17 00:15:50;;;;;;;14.70;4.33;;;;;7.40;101998.00;;;;9787381;29;20790;-79
2023/05/17 00:20:52;;;;;;;11.23;4.00;;;;;7.30;101997.00;;;;9808328;29;20738;-80
2023/05/17 00:25:53;;;;;;;14.63;4.77;;;;;7.30;101986.00;;;;9808075;29;20223;-81
2023/05/17 00:30:54;;;;;;;11.37;4.90;;;;;7.20;102008.00;;;;9818238;29;20243;-76
2023/05/17 00:35:56;;;;;;;17.67;5.43;;;;;7.10;101996.00;;;;9801163;29;20631;-75
2023/05/17 00:40:58;;;;;;;14.47;5.33;;;;;7.10;101994.00;;;;9785551;29;21035;-81
2023/05/17 00:46:00;;;;;;;14.23;4.93;;;;;7.10;102002.00;;;;9792602;29;20215;-75
2023/05/17 00:51:01;;;;;;;7.23;4.80;;;;;7.00;102004.00;;;;9784652;29;21795;-77
2023/05/17 00:56:03;;;;;;;11.47;5.50;;;;;7.00;102003.00;;;;9771068;29;20584;-75
2023/05/17 01:01:06;;;;;;;15.43;5.30;;;;;7.00;102011.00;;;;9788244;29;21946;-76
2023/05/17 01:06:08;;;;;;;18.23;6.00;;;;;6.90;102009.00;;;;9773203;29;20323;-77
2023/05/17 01:11:29;;;;;;;13.03;5.70;;;;;6.90;102015.00;;;;9802688;29;20223;-76
2023/05/17 01:16:47;;;;;;;13.80;5.50;;;;;6.90;102014.00;;;;9801846;29;20267;-76
2023/05/17 01:22:06;;;;;;;19.87;6.40;;;;;6.90;102018.00;;;;9802833;29;20261;-76
2023/05/17 01:27:12;;;;;;;10.67;5.87;;;;;6.90;102014.00;;;;9785624;29;20216;-75
2023/05/17 01:32:15;;;;;;;19.33;7.07;;;;;6.90;102014.00;;;;9786503;29;20227;-76
2023/05/17 01:37:16;;;;;;;13.70;5.93;;;;;6.80;102019.00;;;;9789302;29;20615;-77
2023/05/17 01:42:26;;;;;;;15.30;5.93;;;;;6.80;102020.00;;;;9787642;29;20254;-76
2023/05/17 01:47:49;;;;;;;17.40;6.80;;;;;6.80;102014.00;;;;9787997;29;20268;-76
2023/05/17 01:53:14;;;;;;;16.27;6.60;;;;;6.80;102011.00;;;;9804216;29;21708;-76
2023/05/17 01:58:17;;;;;;;12.63;6.13;;;;;6.80;102012.00;;;;9786535;29;20250;-76
2023/05/17 02:03:19;;;;;;;13.57;5.73;;;;;6.60;101996.00;;;;9786918;29;20707;-76
2023/05/17 02:08:25;;;;;;;19.90;7.73;;;;;6.50;101986.00;;;;9803449;29;20962;-76
2023/05/17 02:13:27;;;;;;;12.37;7.13;;;;;6.40;102002.00;;;;9791768;29;20263;-76
2023/05/17 02:18:28;;;;;;;15.53;6.60;;;;;6.40;101998.00;;;;9790139;29;20247;-77
2023/05/17 02:23:30;;;;;;;20.67;8.90;;;;;6.30;101995.00;;;;9790364;29;20251;-76
2023/05/17 02:28:32;;;;;;;10.07;5.90;;;;;6.20;102016.00;;;;9806177;29;20223;-76
2023/05/17 02:33:34;;;;;;;18.03;7.03;;;;;6.20;102017.00;;;;9789810;29;20343;-76
2023/05/17 02:38:35;;;;;;;13.07;5.93;;;;;6.10;102032.00;;;;9804868;29;20243;-76
2023/05/17 02:43:37;;;;;;;13.10;6.93;;;;;6.00;102025.00;;;;9790351;29;20602;-76
2023/05/17 02:48:38;;;;;;;21.67;8.20;;;;;5.90;102028.00;;;;9790885;29;20897;-77
2023/05/17 02:53:40;;;;;;;15.70;7.40;;;;;5.80;102030.00;;;;9788521;29;21381;-76
2023/05/17 02:58:41;;;;;;;14.63;8.30;;;;;5.80;102035.00;;;;9795168;29;21384;-83
2023/05/17 03:03:43;;;;;;;14.50;6.83;;;;;5.80;102044.00;;;;9813516;29;21617;-84
2023/05/17 03:08:45;;;;;;;18.23;7.93;;;;;5.70;102045.00;;;;9778635;29;20802;-76
2023/05/17 03:13:50;;;;;;;12.67;7.13;;;;;5.70;102043.00;;;;9774716;29;20307;-76
2023/05/17 03:18:54;;;;;;;12.03;6.83;;;;;5.70;102038.00;;;;9780827;29;20278;-81
2023/05/17 03:23:57;;;;;;;16.27;8.37;;;;;5.60;102038.00;;;;9791913;29;20514;-74
2023/05/17 03:28:58;;;;;;;22.63;9.17;;;;;5.70;102052.00;;;;9784589;29;20227;-74
2023/05/17 03:34:00;;;;;;;15.70;8.53;;;;;5.70;102060.00;;;;9819915;29;20223;-79
2023/05/17 03:39:02;;;;;;;17.47;8.87;;;;;5.70;102071.00;;;;9813565;29;21422;-80
2023/05/17 03:44:04;;;;;;;26.83;9.10;;;;;5.80;102073.00;;;;9829061;29;20262;-80
2023/05/17 03:49:07;;;;;;;17.67;7.40;;;;;5.90;102086.00;;;;9829285;29;20506;-82
2023/05/17 03:54:09;;;;;;;20.40;9.40;;;;;6.00;102082.00;;;;9796407;29;20572;-82
2023/05/17 03:59:10;;;;;;;22.53;10.13;;;;;6.00;102074.00;;;;9819878;29;20308;-82
2023/05/17 04:04:12;;;;;;;25.77;9.90;;;;;6.10;102083.00;;;;9829212;29;20227;-80
2023/05/17 04:09:15;;;;;;;27.73;10.90;;;;;6.40;102091.00;;;;9815106;29;20235;-82
2023/05/17 04:14:18;;;;;;;21.40;10.67;;;;;6.60;102079.00;;;;9797948;29;20932;-83
2023/05/17 04:19:19;;;;;;;24.43;12.17;;;;;6.80;102087.00;;;;9827007;29;20313;-81
2023/05/17 04:24:21;;;;;;;25.23;13.10;;;;;7.10;102095.00;;;;9812723;29;20321;-79
2023/05/17 04:29:23;;;;;;;24.90;12.53;;;;;7.30;102100.00;;;;9794672;29;20231;-79
2023/05/17 04:34:25;;;;;;;27.30;12.03;;;;;7.50;102084.00;;;;9813106;29;20298;-79
2023/05/17 04:39:30;;;;;;;22.77;11.90;;;;;7.70;102087.00;;;;9799820;29;20363;-79
2023/05/17 04:44:32;;;;;;;31.13;12.70;;;;;7.90;102097.00;;;;9801761;29;20583;-74
2023/05/17 04:49:33;;;;;;;26.80;12.97;;;;;8.10;102097.00;;;;9815079;29;20739;-75
2023/05/17 04:54:36;;;;;;;26.23;13.40;;;;;8.40;102117.00;;;;9769050;29;20783;-76
2023/05/17 04:59:38;;;;;;;26.03;12.17;;;;;8.60;102113.00;;;;9755125;29;20235;-76
2023/05/17 05:04:40;;;;;;;32.97;11.40;;;;;8.70;102131.00;;;;9798151;29;20352;-79
2023/05/17 05:09:46;;;;;;;30.03;12.37;;;;;8.90;102130.00;;;;9773550;29;20711;-75
2023/05/17 05:14:49;;;;;;;28.20;12.20;;;;;9.10;102146.00;;;;9784370;29;20244;-76
2023/05/17 05:19:51;;;;;;;27.90;13.00;;;;;9.30;102151.00;;;;9783537;29;20250;-77
2023/05/17 05:24:54;;;;;;;26.57;11.00;;;;;9.50;102144.00;;;;9771603;29;20218;-77
2023/05/17 05:29:55;;;;;;;21.50;10.90;;;;;9.70;102159.00;;;;9784235;29;20224;-76
2023/05/17 05:34:58;;;;;;;28.27;10.90;;;;;10.00;102152.00;;;;9819590;29;20240;-81
2023/05/17 05:40:00;;;;;;;21.90;10.77;;;;;10.10;102157.00;;;;9791912;29;20250;-77
2023/05/17 05:45:02;;;;;;;19.07;10.60;;;;;10.40;102169.00;;;;9833061;29;20219;-77
2023/05/17 05:50:05;;;;;;;28.53;10.97;;;;;10.50;102163.00;;;;9805187;29;20763;-75
2023/05/17 05:55:07;;;;;;;19.07;10.10;;;;;10.70;102167.00;;;;9808746;29;20675;-80
2023/05/17 06:00:10;;;;;;;24.37;9.07;;;;;11.10;102172.00;;;;9828590;29;20342;-80
2023/05/17 06:05:14;;;;;;;24.60;9.83;;;;;11.30;102174.00;;;;9808058;29;20614;-77
2023/05/17 06:10:16;;;;;;;21.47;9.53;;;;;11.50;102171.00;;;;9798325;29;20246;-78
2023/05/17 06:15:18;;;;;;;17.80;8.80;;;;;11.70;102178.00;;;;9810755;29;20223;-77
2023/05/17 06:20:19;;;;;;;20.43;8.20;;;;;11.90;102176.00;;;;9809137;29;20267;-77
2023/05/17 06:25:22;;;;;;;16.97;8.43;;;;;12.10;102194.00;;;;9791627;29;20222;-75
2023/05/17 06:30:23;;;;;;;21.67;9.40;;;;;12.40;102196.00;;;;9857095;29;20223;-77
2023/05/17 06:35:25;;;;;;;18.43;8.57;;;;;12.60;102203.00;;;;9878911;29;20216;-77
2023/05/17 06:40:26;;;;;;;19.43;8.20;;;;;12.70;102187.00;;;;9806399;29;20251;-77
2023/05/17 06:45:28;;;;;;;12.23;7.77;;;;;12.90;102195.00;;;;9809312;29;20623;-76
2023/05/17 06:50:30;;;;;;;17.57;8.03;;;;;13.50;102204.00;;;;9808370;29;20263;-78
2023/05/17 06:55:32;;;;;;;14.63;8.03;;;;;13.20;102210.00;;;;9808035;29;20912;-77
2023/05/17 07:00:34;;;;;;;11.43;7.73;;;;;14.60;102202.00;;;;9809606;29;20305;-76
2023/05/17 07:05:36;;;;;;;16.75;7.53;;;;;15.60;102203.00;;;;9790626;29;20285;-76
2023/05/17 07:10:38;;;;;;;16.17;6.90;;;;;16.10;102200.00;;;;9786674;29;20224;-76
2023/05/17 07:15:39;;;;;;;12.18;6.70;;;;;15.80;102206.00;;;;9774910;29;20338;-78
2023/05/17 07:26:45;;;;;;;16.27;7.32;;;;;15.30;102193.00;;;;9807712;29;20341;-78
2023/05/17 07:31:46;;;;;;;16.90;7.07;;;;;15.50;102179.00;;;;10172154;24;20262;-77
2023/05/17 07:36:47;;;;;;;15.07;7.05;;;;;17.30;102181.00;;;;10167389;24;20843;-81
2023/05/17 07:41:49;;;;;;;16.48;6.03;;;;;18.60;102185.00;;;;9845965;29;20235;-80
2023/05/17 07:46:50;;;;;;;14.02;5.45;;;;;18.90;102188.00;;;;9825937;29;20219;-79
2023/05/17 07:51:53;;;;;;;14.57;5.63;;;;;20.40;102186.00;;;;9838342;29;20227;-80
2023/05/17 07:56:54;;;;;;;9.50;5.22;;;;;21.50;102180.00;;;;9962595;24;20263;-80
2023/05/17 08:01:55;;;;;;;9.52;4.10;;;;;21.90;102189.00;;;;9789360;29;20228;-80
2023/05/17 08:06:57;;;;;;;10.13;3.20;;;;;22.40;102185.00;;;;9801095;29;20224;-80
2023/05/17 08:11:58;;;;;;;8.65;3.17;;;;;22.60;102184.00;;;;9790453;29;20232;-79
2023/05/17 08:17:00;;;;;;;9.23;3.20;;;;;22.70;102189.00;;;;9788348;29;20208;-78
2023/05/17 08:22:02;;;;;;;6.53;2.47;;;;;21.10;102190.00;;;;9789000;29;21340;-76
2023/05/17 08:27:04;;;;;;;9.45;2.83;;;;;19.30;102193.00;;;;9756790;30;21603;-77
2023/05/17 08:32:05;;;;;;;5.72;2.03;;;;;19.80;102188.00;;;;9769406;30;20595;-77
2023/05/17 08:37:07;;;;;;;7.22;2.45;;;;;19.10;102181.00;;;;9798072;29;20298;-77
2023/05/17 08:42:09;;;;;;;7.22;2.20;;;;;20.70;102179.00;;;;9803911;29;20227;-78
2023/05/17 08:47:11;;;;;;;5.45;2.75;;;;;22.70;102167.00;;;;9790362;29;20215;-77
2023/05/17 08:52:13;;;;;;;9.18;2.75;;;;;23.20;102183.00;;;;9802932;29;20614;-81
2023/05/17 08:57:17;;;;;;;11.23;3.00;;;;;21.20;102187.00;;;;9828495;29;20239;-81
2023/05/17 09:02:19;;;;;;;6.82;2.40;;;;;20.10;102172.00;;;;9827550;29;20313;-80
2023/05/17 09:07:21;;;;;;;7.00;2.35;;;;;20.20;102158.00;;;;9812574;29;21356;-76
2023/05/17 09:12:23;;;;;;;8.75;2.50;;;;;20.70;102158.00;;;;9796330;29;20253;-76
2023/05/17 09:17:26;;;;;;;12.40;2.72;;;;;21.00;102168.00;;;;9814874;29;20231;-76
2023/05/17 09:22:28;;;;;;;7.05;2.20;;;;;22.20;102150.00;;;;9819190;29;20261;-76
2023/05/17 09:27:31;;;;;;;7.22;2.88;;;;;22.00;102161.00;;;;9817390;29;20219;-76
2023/05/17 09:32:32;;;;;;;6.10;2.40;;;;;21.10;102164.00;;;;9820723;29;21205;-76
2023/05/17 09:37:37;;;;;;;11.43;2.78;;;;;22.60;102150.00;;;;9819376;29;21328;-76
2023/05/17 09:42:39;;;;;;;4.07;2.10;;;;;21.70;102153.00;;;;9773874;29;20907;-78
2023/05/17 09:47:41;;;;;;;4.50;2.17;;;;;22.20;102154.00;;;;9805459;29;20231;-78
2023/05/17 09:52:42;;;;;;;9.35;3.17;;;;;22.30;102152.00;;;;9824632;29;21031;-78
2023/05/17 09:57:45;;;;;;;10.90;2.67;;;;;21.50;102164.00;;;;9820555;29;20236;-80
2023/05/17 10:02:49;;;;;;;6.25;2.47;;;;;20.90;102158.00;;;;9824047;29;20230;-78
2023/05/17 10:07:54;;;;;;;6.00;2.47;;;;;20.60;102144.00;;;;9821208;29;20215;-78
2023/05/17 10:12:56;;;;;;;5.03;2.28;;;;;22.00;102149.00;;;;9823731;29;20322;-78
2023/05/17 10:17:59;;;;;;;9.15;2.15;;;;;21.80;102154.00;;;;9813356;29;20239;-79
2023/05/17 10:23:02;;;;;;;7.00;2.25;;;;;23.40;102154.00;;;;9823351;29;20308;-79
2023/05/17 10:28:06;;;;;;;7.97;2.40;;;;;24.70;102138.00;;;;9798897;29;20223;-79
2023/05/17 10:33:10;;;;;;;8.82;2.50;;;;;25.50;102144.00;;;;9814978;29;20227;-78
2023/05/17 10:38:12;;;;;;;6.88;2.40;;;;;24.00;102135.00;;;;9815302;29;20326;-79
2023/05/17 10:43:15;;;;;;;10.32;2.20;;;;;22.90;102134.00;;;;9800071;29;20222;-76
2023/05/17 10:48:17;;;;;;;7.40;2.67;;;;;24.20;102117.00;;;;9824289;29;21070;-76
2023/05/17 10:53:18;;;;;;;7.28;2.42;;;;;25.00;102129.00;;;;9812570;29;20239;-76
2023/05/17 10:58:20;;;;;;;7.55;2.75;;;;;25.10;102116.00;;;;9801089;29;20238;-75
2023/05/17 11:03:30;;;;;;;6.32;1.92;;;;;24.90;102122.00;;;;9791297;29;20230;-76
2023/05/17 11:08:32;;;;;;;6.47;2.17;;;;;24.70;102120.00;;;;9842894;29;20768;-81
2023/05/17 11:13:34;;;;;;;5.97;2.05;;;;;24.00;102119.00;;;;9851448;29;20229;-82
2023/05/17 11:18:52;;;;;;;6.35;2.25;;;;;25.60;102110.00;;;;9834443;29;20243;-79
2023/05/17 11:23:59;;;;;;;5.30;1.80;;;;;25.60;102122.00;;;;9814844;29;21367;-77
2023/05/17 11:29:06;;;;;;;6.05;2.20;;;;;25.70;102127.00;;;;9809238;29;20263;-77
2023/05/17 11:34:07;;;;;;;5.43;2.03;;;;;25.50;102120.00;;;;9810259;29;20912;-78
2023/05/17 11:39:13;;;;;;;8.50;2.42;;;;;25.40;102089.00;;;;9794563;29;20293;-76
2023/05/17 11:44:28;;;;;;;9.68;2.40;;;;;24.50;102114.00;;;;9803906;29;20234;-77
2023/05/17 11:49:31;;;;;;;7.70;2.35;;;;;25.60;102114.00;;;;9810593;29;20262;-78
2023/05/17 11:54:39;;;;;;;6.38;2.13;;;;;26.40;102108.00;;;;9798412;29;20223;-78
2023/05/17 11:59:45;;;;;;;9.18;2.50;;;;;25.60;102112.00;;;;9804377;29;20512;-76
2023/05/17 12:04:46;;;;;;;7.65;2.33;;;;;22.50;102099.00;;;;9812356;29;20315;-78
2023/05/17 12:09:48;;;;;;;11.23;2.60;;;;;23.00;102089.00;;;;9822145;29;20902;-77
2023/05/17 12:14:50;;;;;;;6.82;2.15;;;;;24.80;102098.00;;;;9811491;29;20824;-76
2023/05/17 12:19:52;;;;;;;6.82;1.90;;;;;25.70;102087.00;;;;9796290;29;20842;-76
2023/05/17 12:24:54;;;;;;;3.72;1.60;;;;;23.60;102094.00;;;;9797257;29;20359;-76
2023/05/17 12:29:55;;;;;;;7.07;1.85;;;;;24.90;102082.00;;;;9811161;29;20227;-77
2023/05/17 12:34:57;;;;;;;5.30;1.90;;;;;24.20;102094.00;;;;9816063;29;20825;-76
2023/05/17 12:40:01;;;;;;;7.25;2.08;;;;;24.10;102090.00;;;;9819076;29;20432;-77
2023/05/17 12:45:03;;;;;;;6.43;1.67;;;;;24.20;102076.00;;;;9823104;29;21140;-76
2023/05/17 12:50:05;;;;;;;7.05;1.80;;;;;24.20;102082.00;;;;9819051;29;20316;-75
2023/05/17 12:55:12;;;;;;;5.30;1.88;;;;;25.00;102081.00;;;;9789791;29;20501;-78
2023/05/17 13:00:14;;;;;;;7.95;1.77;;;;;24.80;102070.00;;;;9809317;29;20243;-78
2023/05/17 13:05:21;;;;;;;4.63;1.70;;;;;24.00;102076.00;;;;9811039;29;20857;-78
2023/05/17 13:10:25;;;;;;;5.35;1.40;;;;;24.10;102075.00;;;;9807769;29;20372;-77
2023/05/17 13:15:31;;;;;;;4.45;1.40;;;;;23.60;102073.00;;;;9809368;29;20713;-77
2023/05/17 13:20:32;;;;;;;7.72;2.33;;;;;24.50;102068.00;;;;9807138;29;20868;-76
2023/05/17 13:25:35;;;;;;;6.10;1.98;;;;;23.30;102073.00;;;;9808000;29;20238;-77
2023/05/17 13:30:37;;;;;;;7.97;2.00;;;;;24.20;102063.00;;;;9792947;29;20238;-77
2023/05/17 13:35:40;;;;;;;3.53;1.70;;;;;24.30;102065.00;;;;9807962;29;20231;-77
2023/05/17 13:40:42;;;;;;;5.65;1.75;;;;;24.20;102059.00;;;;9821773;29;20243;-78
2023/05/17 13:45:43;;;;;;;5.43;1.90;;;;;25.00;102049.00;;;;9805161;29;20235;-76
2023/05/17 13:50:45;;;;;;;6.63;1.95;;;;;25.60;102053.00;;;;9823656;29;20312;-77
2023/05/17 13:55:47;;;;;;;6.57;1.98;;;;;24.30;102070.00;;;;9820177;29;20220;-76
2023/05/17 14:00:48;;;;;;;5.85;1.90;;;;;22.60;102063.00;;;;9819385;29;20312;-77
2023/05/17 14:05:51;;;;;;;7.03;2.45;;;;;21.30;102058.00;;;;9832443;29;20223;-77
2023/05/17 14:10:52;;;;;;;7.80;2.13;;;;;22.10;102051.00;;;;9802024;29;20333;-77
2023/05/17 14:15:54;;;;;;;5.97;1.60;;;;;24.00;102046.00;;;;9815043;29;20708;-78
2023/05/17 14:20:55;;;;;;;6.50;1.80;;;;;26.00;102050.00;;;;9829177;29;20245;-78
2023/05/17 14:25:56;;;;;;;6.65;2.05;;;;;24.00;102065.00;;;;9832223;29;20810;-77
2023/05/17 14:30:58;;;;;;;6.38;2.10;;;;;23.60;102059.00;;;;9842465;29;20241;-77
2023/05/17 14:36:00;;;;;;;2.95;1.50;;;;;24.80;102049.00;;;;9842165;29;20288;-76
2023/05/17 14:41:02;;;;;;;4.38;1.63;;;;;23.50;102055.00;;;;9833915;29;20240;-77
2023/05/17 14:46:03;;;;;;;5.43;1.70;;;;;25.30;102064.00;;;;9817033;29;20230;-78
2023/05/17 14:51:04;;;;;;;4.47;1.67;;;;;22.70;102064.00;;;;9831222;29;20914;-78
2023/05/17 14:56:06;;;;;;;4.43;1.63;;;;;20.70;102054.00;;;;9831377;29;20308;-78
2023/05/17 15:01:08;;;;;;;5.18;1.67;;;;;26.70;102048.00;;;;9839161;29;21077;-81
2023/05/17 15:06:09;;;;;;;6.25;1.85;;;;;27.80;102048.00;;;;9841580;29;20238;-81
2023/05/17 15:11:13;;;;;;;4.05;1.77;;;;;28.40;102038.00;;;;9843733;29;20211;-81
2023/05/17 15:16:14;;;;;;;5.10;2.05;;;;;29.60;102048.00;;;;9852625;29;20228;-81
2023/05/17 15:21:17;;;;;;;4.70;2.00;;;;;28.90;102040.00;;;;9831814;29;20326;-82
2023/05/17 15:26:19;;;;;;;3.17;1.60;;;;;27.20;102034.00;;;;9840768;29;20227;-78
2023/05/17 15:31:20;;;;;;;3.08;1.60;;;;;29.90;102041.00;;;;9821571;29;20261;-78
2023/05/17 15:36:21;;;;;;;6.75;2.00;;;;;29.80;102053.00;;;;9775894;29;20703;-78
2023/05/17 15:41:26;;;;;;;6.05;1.88;;;;;26.10;102070.00;;;;9791460;29;20232;-80
2023/05/17 15:46:31;;;;;;;6.75;1.67;;;;;22.40;102062.00;;;;9813664;29;20234;-76
2023/05/17 15:51:32;;;;;;;6.35;2.17;;;;;21.60;102052.00;;;;9796449;29;20937;-77
2023/05/17 15:56:36;;;;;;;5.43;2.03;;;;;20.20;102068.00;;;;9809266;29;20227;-78
2023/05/17 16:01:40;;;;;;;6.22;1.58;;;;;19.50;102059.00;;;;9826182;29;20308;-77
2023/05/17 16:06:42;;;;;;;4.72;1.55;;;;;20.10;102047.00;;;;9818673;29;20223;-80
2023/05/17 16:11:43;;;;;;;4.75;1.52;;;;;19.90;102046.00;;;;9857109;29;20619;-82
2023/05/17 16:16:45;;;;;;;5.78;1.70;;;;;19.80;102036.00;;;;9841586;29;20254;-78
2023/05/17 16:21:49;;;;;;;6.97;2.05;;;;;19.30;102039.00;;;;9836820;29;21598;-80
2023/05/17 16:26:51;;;;;;;6.78;1.90;;;;;19.70;102041.00;;;;9824014;29;20230;-80
2023/05/17 16:31:53;;;;;;;3.42;1.63;;;;;19.40;102045.00;;;;9823027;29;20231;-79
2023/05/17 16:36:54;;;;;;;5.35;2.00;;;;;18.80;102041.00;;;;9826145;29;20230;-80
2023/05/17 16:41:55;;;;;;;6.47;1.83;;;;;18.50;102042.00;;;;9832718;29;20829;-77
2023/05/17 16:46:57;;;;;;;5.88;1.90;;;;;18.60;102047.00;;;;9826450;29;21826;-82
2023/05/17 16:51:58;;;;;;;3.95;1.73;;;;;18.60;102034.00;;;;9819325;29;20235;-82
2023/05/17 16:57:03;;;;;;;8.35;2.05;;;;;18.00;102049.00;;;;9845961;29;20219;-77
2023/05/17 17:02:08;;;;;;;6.80;1.98;;;;;17.30;102050.00;;;;9794003;29;20331;-81
2023/05/17 17:07:09;;;;;;;6.75;1.77;;;;;17.10;102041.00;;;;9840790;29;20307;-77
2023/05/17 17:12:14;;;;;;;9.10;2.70;;;;;17.20;102039.00;;;;9808385;29;20334;-77
2023/05/17 17:17:25;;;;;;;7.03;2.33;;;;;17.10;102049.00;;;;9779575;29;21640;-77
2023/05/17 17:22:27;;;;;;;4.57;1.70;;;;;17.00;102046.00;;;;9787910;29;20223;-77
2023/05/17 17:27:28;;;;;;;6.72;1.88;;;;;16.80;102051.00;;;;9786758;29;20425;-77
2023/05/17 17:32:30;;;;;;;5.45;1.92;;;;;16.70;102050.00;;;;9817842;29;20227;-77
2023/05/17 17:37:31;;;;;;;3.90;1.85;;;;;16.50;102056.00;;;;9821358;29;20235;-78
2023/05/17 17:42:33;;;;;;;7.57;2.25;;;;;16.40;102057.00;;;;9830110;29;20219;-75
2023/05/17 17:47:34;;;;;;;7.57;2.10;;;;;16.20;102050.00;;;;9806817;29;20867;-75
2023/05/17 17:52:36;;;;;;;5.82;1.98;;;;;16.00;102050.00;;;;9797346;29;20351;-76
2023/05/17 17:57:38;;;;;;;8.40;2.00;;;;;15.70;102061.00;;;;9808609;29;20211;-77
2023/05/17 18:02:39;;;;;;;5.25;2.08;;;;;15.60;102064.00;;;;9793077;29;20231;-79
2023/05/17 18:07:41;;;;;;;7.35;2.38;;;;;15.60;102067.00;;;;9756288;29;21758;-81
2023/05/17 18:12:42;;;;;;;9.98;2.40;;;;;15.50;102073.00;;;;9754200;29;20849;-78
2023/05/17 18:17:44;;;;;;;6.20;2.37;;;;;15.40;102070.00;;;;9770144;29;20215;-79
2023/05/17 18:22:46;;;;;;;7.20;2.10;;;;;15.20;102070.00;;;;9779023;29;20226;-80
2023/05/17 18:27:47;;;;;;;7.60;2.50;;;;;15.10;102076.00;;;;9768181;29;20814;-81
2023/05/17 18:32:49;;;;;;;10.23;2.33;;;;;15.00;102065.00;;;;9769320;29;20234;-81
2023/05/17 18:37:50;;;;;;;10.70;2.50;;;;;14.90;102067.00;;;;9833619;29;20274;-81
2023/05/17 18:42:52;;;;;;;7.50;2.50;;;;;14.70;102067.00;;;;9830858;29;20254;-80
2023/05/17 18:47:53;;;;;;;7.73;2.57;;;;;14.40;102070.00;;;;9832636;29;20219;-81
2023/05/17 18:52:54;;;;;;;7.90;2.37;;;;;14.20;102062.00;;;;9831442;29;20243;-80
2023/05/17 18:57:58;;;;;;;8.03;2.47;;;;;13.90;102066.00;;;;9821223;29;20525;-80
2023/05/17 19:02:59;;;;;;;9.60;2.33;;;;;13.70;102064.00;;;;9829408;29;20254;-79
2023/05/17 19:08:01;;;;;;;14.07;2.83;;;;;13.50;102081.00;;;;9829853;29;20208;-80
2023/05/17 19:13:02;;;;;;;8.77;2.30;;;;;13.30;102086.00;;;;9810878;29;20334;-79
2023/05/17 19:18:04;;;;;;;8.00;2.60;;;;;13.10;102095.00;;;;9810165;29;20235;-80
2023/05/17 19:23:06;;;;;;;9.10;2.43;;;;;12.90;102098.00;;;;9816721;29;20283;-80
2023/05/17 19:28:07;;;;;;;15.10;7.67;;;;;12.70;102093.00;;;;9786652;29;20220;-81
2023/05/17 19:33:17;;;;;;;8.23;3.10;;;;;12.50;102095.00;;;;9808694;29;20230;-78
2023/05/17 19:38:22;;;;;;;6.13;2.27;;;;;12.40;102104.00;;;;9799659;29;21878;-77
2023/05/17 19:43:24;;;;;;;12.23;2.63;;;;;12.30;102103.00;;;;9812317;29;20637;-80
2023/05/17 19:48:25;;;;;;;12.43;2.60;;;;;12.10;102105.00;;;;9824633;29;21329;-79
2023/05/17 19:53:27;;;;;;;12.33;3.23;;;;;12.00;102107.00;;;;9826286;29;20318;-80
2023/05/17 19:58:41;;;;;;;9.80;2.87;;;;;11.80;102109.00;;;;9822938;29;20238;-78
2023/05/17 20:03:43;;;;;;;8.63;2.70;;;;;11.70;102118.00;;;;9815153;29;20951;-76
2023/05/17 20:08:45;;;;;;;7.33;2.30;;;;;11.60;102128.00;;;;9808889;29;20318;-79
2023/05/17 20:13:47;;;;;;;6.83;2.40;;;;;11.50;102112.00;;;;9789091;29;20232;-78
2023/05/17 20:18:48;;;;;;;5.43;2.40;;;;;11.40;102119.00;;;;9796985;29;20363;-81
2023/05/17 20:23:55;;;;;;;8.30;2.73;;;;;11.30;102108.00;;;;9819147;29;20775;-81
2023/05/17 20:28:57;;;;;;;14.37;3.00;;;;;11.20;102122.00;;;;9784659;29;21279;-81
2023/05/17 20:33:59;;;;;;;5.60;2.70;;;;;11.10;102112.00;;;;9816150;29;20224;-81
2023/05/17 20:39:01;;;;;;;9.40;2.50;;;;;11.00;102119.00;;;;9794655;29;20270;-82
2023/05/17 20:44:02;;;;;;;10.77;2.67;;;;;10.90;102131.00;;;;9821576;29;20291;-80
2023/05/17 20:49:03;;;;;;;9.57;3.10;;;;;10.80;102135.00;;;;9823862;29;20230;-80
2023/05/17 20:54:05;;;;;;;12.53;3.37;;;;;10.70;102137.00;;;;9817127;29;20327;-81
2023/05/17 20:59:06;;;;;;;9.20;2.60;;;;;10.60;102134.00;;;;9785786;29;20936;-81
2023/05/17 21:04:07;;;;;;;6.27;2.97;;;;;10.40;102136.00;;;;9813592;29;20334;-79
2023/05/17 21:09:09;;;;;;;10.67;3.00;;;;;10.40;102133.00;;;;9822595;29;20964;-78
2023/05/17 21:14:11;;;;;;;13.23;2.90;;;;;10.20;102132.00;;;;9799469;29;20238;-78
2023/05/17 21:19:13;;;;;;;13.07;3.17;;;;;10.10;102130.00;;;;9823831;29;20865;-78
2023/05/17 21:24:14;;;;;;;8.90;2.80;;;;;10.00;102141.00;;;;9823195;29;20427;-78
2023/05/17 21:29:16;;;;;;;14.33;3.57;;;;;9.90;102139.00;;;;9822034;29;21955;-79
2023/05/17 21:34:17;;;;;;;15.37;3.00;;;;;9.80;102135.00;;;;9795223;29;20480;-79
2023/05/17 21:39:19;;;;;;;7.07;2.80;;;;;9.70;102129.00;;;;9804859;29;20428;-80
2023/05/17 21:44:20;;;;;;;16.37;3.23;;;;;9.60;102140.00;;;;9824530;29;20224;-81
2023/05/17 21:49:21;;;;;;;12.70;3.90;;;;;9.50;102132.00;;;;9806359;29;20304;-79
2023/05/17 21:54:23;;;;;;;12.40;3.20;;;;;9.40;102120.00;;;;9827621;29;20232;-79
2023/05/17 21:59:24;;;;;;;14.67;3.13;;;;;9.30;102122.00;;;;9810311;29;20247;-79
2023/05/17 22:04:26;;;;;;;10.00;3.27;;;;;9.20;102126.00;;;;9813256;29;20231;-79
2023/05/17 22:09:28;;;;;;;8.87;2.90;;;;;9.00;102125.00;;;;9824080;29;20316;-80
2023/05/17 22:14:32;;;;;;;8.90;3.20;;;;;9.00;102135.00;;;;9800149;29;20253;-81
2023/05/17 22:19:39;;;;;;;13.43;3.67;;;;;8.90;102131.00;;;;9807830;29;22008;-75
2023/05/17 22:24:40;;;;;;;10.00;3.50;;;;;8.80;102130.00;;;;9827151;29;20512;-76
2023/05/17 22:29:42;;;;;;;12.47;3.20;;;;;8.70;102127.00;;;;9827027;29;20260;-80
2023/05/17 22:34:44;;;;;;;9.77;3.27;;;;;8.70;102130.00;;;;9844816;29;20238;-79
2023/05/17 22:39:45;;;;;;;10.47;3.37;;;;;8.60;102135.00;;;;9808051;29;20239;-76
2023/05/17 22:44:47;;;;;;;10.63;3.50;;;;;8.50;102135.00;;;;9830735;29;20265;-81
2023/05/17 22:49:51;;;;;;;14.30;4.40;;;;;8.50;102136.00;;;;9821259;29;20253;-78
2023/05/17 22:54:52;;;;;;;10.13;3.50;;;;;8.50;102137.00;;;;9815135;29;20223;-76
2023/05/17 22:59:53;;;;;;;9.03;3.47;;;;;8.40;102129.00;;;;9816650;29;20825;-77
2023/05/17 23:04:55;;;;;;;11.33;3.47;;;;;8.30;102131.00;;;;9846091;29;20230;-79
2023/05/17 23:09:57;;;;;;;14.80;3.53;;;;;8.30;102130.00;;;;9826291;29;20745;-81
2023/05/17 23:14:58;;;;;;;8.37;3.40;;;;;8.20;102137.00;;;;9832246;29;20226;-80
2023/05/17 23:20:08;;;;;;;11.90;3.37;;;;;8.10;102131.00;;;;9836427;29;20251;-80
2023/05/17 23:25:10;;;;;;;12.03;3.37;;;;;8.00;102134.00;;;;9801399;29;20218;-76
2023/05/17 23:30:11;;;;;;;12.03;3.37;;;;;8.00;102131.00;;;;9821712;29;20345;-77
2023/05/17 23:35:13;;;;;;;15.37;3.97;;;;;7.90;102147.00;;;;9819924;29;20394;-77
2023/05/17 23:40:15;;;;;;;8.57;3.23;;;;;7.90;102136.00;;;;9820190;29;20247;-77
2023/05/17 23:45:16;;;;;;;12.17;3.63;;;;;7.80;102138.00;;;;9790548;29;20230;-77
2023/05/17 23:50:18;;;;;;;7.40;3.47;;;;;7.70;102137.00;;;;9812511;29;20234;-76
2023/05/17 23:55:19;;;;;;;11.07;3.80;;;;;7.70;102134.00;;;;9830939;29;20223;-76
